Time;durP1;ratioP1;P1;durP2;ratioP2;P2;SDS_P1;SDS_P2;PMS_P1;PMS_P2;Temp;Humidity;BMP_temperature;BMP_pressure;BME280_temperature;BME280_humidity;BME280_pressure;Samples;Min_cycle;Max_cycle;Signal;HPM_P1;HPM_P2
2022/04/07 08:45:50;;;;;;;3.47;1.30;;;14.40;76.70;;;;;;2299615;62;30156;-72
2022/04/07 08:48:18;;;;;;;4.35;1.48;;;14.40;75.40;;;;;;2283982;62;30123;-72
2022/04/07 08:50:44;;;;;;;1.92;1.20;;;14.50;76.60;;;;;;2284029;62;30138;-72
2022/04/07 08:53:11;;;;;;;3.97;1.30;;;14.50;77.50;;;;;;2291196;62;31863;-72
2022/04/07 08:55:37;;;;;;;4.32;1.20;;;14.50;78.20;;;;;;2283987;62;30616;-72
2022/04/07 08:58:03;;;;;;;4.22;1.50;;;14.60;78.60;;;;;;2291314;62;30142;-71
2022/04/07 09:00:29;;;;;;;4.03;1.35;;;14.60;79.70;;;;;;2290952;62;30358;-71
2022/04/07 09:02:55;;;;;;;2.85;1.27;;;14.70;79.20;;;;;;2291271;62;30796;-72
2022/04/07 09:05:25;;;;;;;5.78;1.23;;;14.70;79.30;;;;;;2283799;62;30540;-71
2022/04/07 09:07:52;;;;;;;2.25;1.58;;;14.70;79.50;;;;;;2283691;62;30266;-71
2022/04/07 09:10:19;;;;;;;2.05;1.25;;;14.70;79.50;;;;;;2283895;62;30049;-71
2022/04/07 09:12:45;;;;;;;3.13;1.30;;;14.80;79.60;;;;;;2273501;62;31063;-68
2022/04/07 09:15:12;;;;;;;4.95;1.30;;;14.90;79.60;;;;;;2275359;62;30157;-69
2022/04/07 09:17:51;;;;;;;2.20;1.10;;;14.90;79.60;;;;;;2290151;62;30037;-69
2022/04/07 09:20:24;;;;;;;4.43;1.30;;;14.90;78.70;;;;;;2290739;62;30204;-70
2022/04/07 09:22:57;;;;;;;2.65;1.00;;;14.90;79.40;;;;;;2291134;62;30082;-69
2022/04/07 09:25:24;;;;;;;2.67;1.17;;;15.00;79.30;;;;;;2291010;62;31850;-79
2022/04/07 09:27:50;;;;;;;3.70;1.20;;;15.00;79.20;;;;;;2283403;62;30154;-86
2022/04/07 09:30:16;;;;;;;2.70;1.40;;;15.00;79.20;;;;;;2283649;62;30057;-74
2022/04/07 09:32:43;;;;;;;4.88;1.38;;;15.00;79.00;;;;;;2290107;62;31916;-80
2022/04/07 09:35:09;;;;;;;5.35;1.25;;;15.00;79.00;;;;;;2276197;62;30626;-78
2022/04/07 09:37:36;;;;;;;1.73;1.00;;;15.00;78.80;;;;;;2276357;62;29927;-80
2022/04/07 09:40:10;;;;;;;4.90;1.13;;;15.00;78.80;;;;;;2290641;62;29976;-79
2022/04/07 09:42:36;;;;;;;2.70;1.25;;;15.00;78.50;;;;;;2276741;62;30235;-78
2022/04/07 09:45:03;;;;;;;4.25;1.58;;;15.00;78.60;;;;;;2276648;62;31560;-79
2022/04/07 09:47:48;;;;;;;4.80;1.63;;;15.10;78.50;;;;;;2283427;62;30458;-79
2022/04/07 09:50:30;;;;;;;4.88;1.25;;;15.00;77.60;;;;;;2283133;62;30623;-77
2022/04/07 09:53:03;;;;;;;5.40;1.45;;;15.10;77.70;;;;;;2290734;62;30771;-78
2022/04/07 09:55:41;;;;;;;2.80;1.45;;;15.10;78.30;;;;;;2288471;62;31383;-75
2022/04/07 09:58:12;;;;;;;4.00;1.23;;;15.10;78.10;;;;;;2277914;62;30174;-75
2022/04/07 10:00:44;;;;;;;2.92;1.27;;;15.10;78.00;;;;;;2283264;62;30204;-77
2022/04/07 10:03:10;;;;;;;4.50;1.48;;;15.10;77.90;;;;;;2284835;62;31304;-77
2022/04/07 10:05:36;;;;;;;2.28;1.10;;;15.10;77.80;;;;;;2284964;62;30159;-82
2022/04/07 10:08:02;;;;;;;4.90;1.20;;;15.10;77.70;;;;;;2277834;62;30371;-84
2022/04/07 10:10:28;;;;;;;2.67;1.05;;;15.10;77.60;;;;;;2277816;62;30193;-84
2022/04/07 10:12:56;;;;;;;3.88;1.08;;;15.10;77.50;;;;;;2277910;62;30971;-79
2022/04/07 10:15:23;;;;;;;3.97;1.23;;;15.10;77.50;;;;;;2278210;62;30525;-79
2022/04/07 10:17:48;;;;;;;2.70;1.10;;;15.10;77.40;;;;;;2285355;62;30101;-83
2022/04/07 10:20:16;;;;;;;5.88;1.80;;;15.10;77.40;;;;;;2285339;62;29860;-81
2022/04/07 10:22:45;;;;;;;3.45;1.40;;;15.10;77.20;;;;;;2285304;62;30163;-81
2022/04/07 10:25:11;;;;;;;2.67;1.23;;;15.10;77.10;;;;;;2284308;62;30969;-79
2022/04/07 10:27:44;;;;;;;5.15;1.52;;;15.10;77.20;;;;;;2278378;62;30278;-81
2022/04/07 10:30:13;;;;;;;5.68;1.45;;;15.10;77.00;;;;;;2271032;62;30092;-79
2022/04/07 10:32:46;;;;;;;3.03;1.40;;;15.10;77.00;;;;;;2269599;62;32110;-72
2022/04/07 10:35:27;;;;;;;3.15;1.52;;;15.10;76.60;;;;;;2283443;62;30758;-74
2022/04/07 10:37:53;;;;;;;5.45;1.73;;;15.00;76.40;;;;;;2285053;62;30017;-73
2022/04/07 10:40:34;;;;;;;3.63;1.52;;;14.90;76.80;;;;;;2285186;62;30022;-75
2022/04/07 10:43:05;;;;;;;4.60;1.63;;;14.90;76.40;;;;;;2280857;62;30299;-70
2022/04/07 10:45:34;;;;;;;;;;;14.90;76.70;;;;;;2277035;62;30283;-72
2022/04/07 10:48:25;;;;;;;3.60;1.30;;;14.90;76.00;;;;;;2277063;62;30350;-71
2022/04/07 10:50:54;;;;;;;4.30;1.60;;;14.90;76.20;;;;;;2272501;62;30244;-74
2022/04/07 10:53:24;;;;;;;3.85;1.50;;;14.90;76.70;;;;;;2276757;62;30061;-73
2022/04/07 10:55:54;;;;;;;5.50;1.55;;;15.00;76.80;;;;;;2276978;62;30236;-75
2022/04/07 10:58:20;;;;;;;2.25;1.20;;;15.00;76.60;;;;;;2269678;62;30107;-77
2022/04/07 11:00:46;;;;;;;6.35;1.85;;;15.00;76.60;;;;;;2269333;62;30092;-74
2022/04/07 11:03:14;;;;;;;4.80;1.73;;;15.10;76.50;;;;;;2269436;62;30180;-75
2022/04/07 11:05:59;;;;;;;4.57;1.65;;;15.10;76.40;;;;;;2269308;62;30066;-78
2022/04/07 11:08:25;;;;;;;3.80;1.60;;;15.10;76.00;;;;;;2274906;62;30422;-78
2022/04/07 11:10:53;;;;;;;3.47;1.60;;;15.10;76.30;;;;;;2284819;62;30206;-74
2022/04/07 11:13:50;;;;;;;5.72;1.50;;;15.10;76.30;;;;;;2284540;62;30806;-75
2022/04/07 11:16:30;;;;;;;3.67;1.80;;;15.10;75.70;;;;;;2285138;62;30178;-74
2022/04/07 11:19:21;;;;;;;4.72;1.73;;;15.00;76.00;;;;;;2284760;62;30261;-74
2022/04/07 11:21:50;;;;;;;4.03;1.63;;;15.10;75.80;;;;;;2277307;62;30346;-76
2022/04/07 11:24:23;;;;;;;2.75;1.45;;;15.10;76.20;;;;;;2277277;62;31145;-75
2022/04/07 11:26:51;;;;;;;3.65;1.70;;;15.10;76.10;;;;;;2276221;62;30221;-78
2022/04/07 11:29:31;;;;;;;5.90;1.70;;;15.10;76.20;;;;;;2284574;62;30169;-78
2022/04/07 11:32:08;;;;;;;3.65;1.73;;;15.20;76.00;;;;;;2284268;62;30179;-73
2022/04/07 11:34:38;;;;;;;5.18;1.90;;;15.20;76.00;;;;;;2283907;62;31262;-81
2022/04/07 11:37:08;;;;;;;6.60;2.22;;;15.30;76.10;;;;;;2284659;62;31793;-77
2022/04/07 11:39:34;;;;;;;7.07;2.05;;;15.30;76.10;;;;;;2276823;62;30254;-77
2022/04/07 11:42:00;;;;;;;7.78;1.95;;;15.30;76.00;;;;;;2270232;62;30586;-79
2022/04/07 11:44:26;;;;;;;4.60;1.75;;;15.30;75.80;;;;;;2276075;62;31003;-79
2022/04/07 11:46:52;;;;;;;8.35;2.20;;;15.30;75.90;;;;;;2270332;62;30292;-82
2022/04/07 11:49:18;;;;;;;9.57;2.65;;;15.30;75.60;;;;;;2276303;62;29983;-87
2022/04/07 11:51:46;;;;;;;5.68;2.00;;;15.40;75.60;;;;;;2270306;62;30144;-83
2022/04/07 11:54:15;;;;;;;5.63;2.30;;;15.40;75.50;;;;;;2286548;62;30366;-84
2022/04/07 11:56:41;;;;;;;4.82;1.75;;;15.40;75.50;;;;;;2279959;62;30559;-80
2022/04/07 11:59:12;;;;;;;6.32;1.77;;;15.40;75.40;;;;;;2276935;62;30024;-81
2022/04/07 12:01:43;;;;;;;4.97;1.90;;;15.50;75.30;;;;;;2276437;62;30422;-80
2022/04/07 12:04:09;;;;;;;4.55;1.60;;;15.40;75.20;;;;;;2276728;62;30065;-80
2022/04/07 12:06:37;;;;;;;4.45;1.83;;;15.40;75.20;;;;;;2275149;62;30445;-78
2022/04/07 12:09:04;;;;;;;5.68;1.75;;;15.40;75.20;;;;;;2284622;62;30105;-79
2022/04/07 12:11:35;;;;;;;5.78;2.05;;;15.30;74.90;;;;;;2277310;62;30439;-78
2022/04/07 12:14:04;;;;;;;4.95;1.85;;;15.30;74.70;;;;;;2270795;62;30206;-78
2022/04/07 12:16:30;;;;;;;6.70;2.15;;;15.30;75.00;;;;;;2274738;62;30602;-83
2022/04/07 12:19:04;;;;;;;6.47;1.90;;;15.30;75.10;;;;;;2284590;62;30165;-85
2022/04/07 12:21:49;;;;;;;3.90;1.67;;;15.30;75.10;;;;;;2277130;62;30216;-82
2022/04/07 12:24:15;;;;;;;8.85;2.10;;;15.20;75.00;;;;;;2278014;62;30791;-82
2022/04/07 12:26:44;;;;;;;5.68;1.98;;;15.20;75.10;;;;;;2284356;62;30649;-81
2022/04/07 12:29:17;;;;;;;6.88;2.10;;;15.10;75.20;;;;;;2277145;62;30103;-80
2022/04/07 12:31:43;;;;;;;5.55;1.95;;;15.10;75.10;;;;;;2276075;62;30488;-78
2022/04/07 12:34:12;;;;;;;7.85;2.30;;;15.20;74.90;;;;;;2278925;62;30168;-80
2022/04/07 12:36:41;;;;;;;5.00;2.00;;;15.20;74.10;;;;;;2275824;62;31004;-81
2022/04/07 12:39:11;;;;;;;6.30;1.88;;;15.20;74.10;;;;;;2268421;62;30140;-80
2022/04/07 12:41:39;;;;;;;5.88;1.75;;;15.30;74.30;;;;;;2275920;62;30105;-83
2022/04/07 12:44:05;;;;;;;6.40;1.85;;;15.30;74.30;;;;;;2275507;62;30351;-82
2022/04/07 12:46:54;;;;;;;3.42;1.65;;;15.30;74.20;;;;;;2262599;62;32265;-86
2022/04/07 12:49:26;;;;;;;4.95;1.70;;;15.40;74.10;;;;;;2268943;62;29922;-85
2022/04/07 12:52:02;;;;;;;7.40;1.73;;;15.40;74.30;;;;;;2268010;62;30568;-82
2022/04/07 12:54:28;;;;;;;2.35;1.30;;;15.50;74.20;;;;;;2268782;62;30106;-81
2022/04/07 12:57:13;;;;;;;5.85;2.17;;;15.50;74.10;;;;;;2268834;62;30715;-83
2022/04/07 12:59:54;;;;;;;3.72;1.50;;;15.50;73.70;;;;;;2268578;62;30319;-86
2022/04/07 13:02:20;;;;;;;5.25;1.60;;;15.50;73.60;;;;;;2273933;62;30196;-80
2022/04/07 13:04:51;;;;;;;5.43;1.60;;;15.50;73.90;;;;;;2284293;62;31061;-81
2022/04/07 13:07:18;;;;;;;4.72;1.70;;;15.50;74.00;;;;;;2276562;62;31678;-86
2022/04/07 13:09:44;;;;;;;5.30;1.70;;;15.50;74.00;;;;;;2276890;62;30016;-78
2022/04/07 13:12:10;;;;;;;8.27;2.00;;;15.50;74.10;;;;;;2284041;62;30071;-71
2022/04/07 13:14:36;;;;;;;23.10;2.83;;;15.60;74.10;;;;;;2284244;62;30843;-71
2022/04/07 13:17:03;;;;;;;7.10;1.85;;;15.60;73.70;;;;;;2276721;62;30140;-71
2022/04/07 13:19:29;;;;;;;4.25;1.73;;;15.60;73.50;;;;;;2284127;62;30033;-70
2022/04/07 13:21:55;;;;;;;9.32;2.33;;;15.60;73.70;;;;;;2284265;62;30116;-72
2022/04/07 13:24:20;;;;;;;6.50;1.73;;;15.60;73.70;;;;;;2276807;62;30177;-78
2022/04/07 13:26:47;;;;;;;23.30;3.15;;;15.50;73.80;;;;;;2269767;62;31114;-79
2022/04/07 13:29:13;;;;;;;6.68;2.38;;;15.50;74.20;;;;;;2284304;62;29966;-83
2022/04/07 13:31:39;;;;;;;16.65;2.30;;;15.50;73.90;;;;;;2277457;62;30374;-82
2022/04/07 13:34:06;;;;;;;11.63;2.08;;;15.50;73.80;;;;;;2285071;62;30090;-80
2022/04/07 13:36:31;;;;;;;10.93;2.15;;;15.50;73.60;;;;;;2285484;62;30302;-84
2022/04/07 13:38:58;;;;;;;21.20;2.90;;;15.50;74.50;;;;;;2276445;62;30093;-78
2022/04/07 13:41:24;;;;;;;11.77;2.35;;;15.40;73.90;;;;;;2285254;62;30116;-84
2022/04/07 13:43:50;;;;;;;12.48;2.30;;;15.40;73.80;;;;;;2277256;62;31843;-78
2022/04/07 13:46:17;;;;;;;13.63;2.10;;;15.40;73.80;;;;;;2285131;62;30820;-80
2022/04/07 13:48:43;;;;;;;13.05;1.90;;;15.40;73.70;;;;;;2284826;62;30010;-82
2022/04/07 13:51:09;;;;;;;12.32;2.63;;;15.40;73.90;;;;;;2285821;62;29911;-85
2022/04/07 13:53:36;;;;;;;8.15;2.08;;;15.40;74.00;;;;;;2284835;62;32108;-91
2022/04/07 13:56:02;;;;;;;15.80;2.03;;;15.30;73.90;;;;;;2285996;62;31644;-87
2022/04/07 13:58:28;;;;;;;8.48;2.28;;;15.40;73.90;;;;;;2285852;62;30138;-86
2022/04/07 14:00:54;;;;;;;9.68;1.80;;;15.50;74.10;;;;;;2279678;62;29993;-84
2022/04/07 14:03:20;;;;;;;7.13;1.80;;;15.60;73.90;;;;;;2285048;62;30741;-76
2022/04/07 14:05:46;;;;;;;7.43;1.88;;;15.70;73.70;;;;;;2278192;62;30264;-78
2022/04/07 14:08:13;;;;;;;9.60;1.80;;;15.80;73.50;;;;;;2285275;62;30010;-77
2022/04/07 14:10:41;;;;;;;5.25;1.70;;;15.90;73.30;;;;;;2285412;62;30359;-79
2022/04/07 14:13:06;;;;;;;7.07;1.65;;;16.00;73.20;;;;;;2278439;62;31008;-77
2022/04/07 14:15:33;;;;;;;8.93;2.00;;;16.10;73.00;;;;;;2285244;62;29981;-79
2022/04/07 14:17:59;;;;;;;7.72;1.70;;;16.20;72.90;;;;;;2285692;62;30209;-85
2022/04/07 14:20:25;;;;;;;4.65;1.30;;;16.30;72.80;;;;;;2285984;62;30189;-78
2022/04/07 14:22:51;;;;;;;3.35;1.42;;;16.40;72.80;;;;;;2285700;62;31021;-80
2022/04/07 14:25:18;;;;;;;3.50;1.27;;;16.60;72.60;;;;;;2278543;62;30492;-81
2022/04/07 14:27:44;;;;;;;5.20;1.92;;;16.70;72.50;;;;;;2278244;62;30152;-79
2022/04/07 14:30:10;;;;;;;5.72;1.30;;;16.80;72.10;;;;;;2285438;62;30426;-77
2022/04/07 14:32:36;;;;;;;6.32;1.30;;;16.70;72.00;;;;;;2285563;62;30772;-78
2022/04/07 14:35:02;;;;;;;5.85;1.80;;;16.70;72.00;;;;;;2285690;62;30732;-79
2022/04/07 14:37:28;;;;;;;4.25;1.15;;;16.60;72.00;;;;;;2278026;62;30095;-79
2022/04/07 14:39:54;;;;;;;6.63;1.90;;;16.50;72.00;;;;;;2285400;62;30108;-79
2022/04/07 14:42:20;;;;;;;4.95;1.63;;;16.40;72.10;;;;;;2277893;62;30117;-80
2022/04/07 14:44:46;;;;;;;5.00;1.40;;;16.70;72.20;;;;;;2284810;62;30547;-81
2022/04/07 14:47:11;;;;;;;5.03;1.42;;;16.80;71.60;;;;;;2285234;62;30095;-81
2022/04/07 14:49:38;;;;;;;5.40;1.58;;;16.60;71.60;;;;;;2286144;62;30161;-77
2022/04/07 14:52:04;;;;;;;5.25;1.52;;;16.50;71.60;;;;;;2277662;62;30328;-86
2022/04/07 14:54:31;;;;;;;5.35;1.17;;;16.40;71.70;;;;;;2277901;62;30300;-78
2022/04/07 14:59:33;;;;;;;4.80;1.40;;;16.20;71.90;;;;;;2538379;51;31583;-75
2022/04/07 15:01:59;;;;;;;4.45;1.55;;;16.50;72.50;;;;;;2236637;63;30342;-75
2022/04/07 15:04:28;;;;;;;4.65;1.38;;;17.60;71.90;;;;;;2236596;63;31796;-76
2022/04/07 15:06:54;;;;;;;2.63;1.02;;;18.70;69.70;;;;;;2236432;63;30254;-76
2022/04/07 15:09:20;;;;;;;5.13;1.65;;;18.90;67.50;;;;;;2236777;63;30227;-75
2022/04/07 15:11:48;;;;;;;3.35;1.23;;;18.90;67.00;;;;;;2236796;63;30773;-76
2022/04/07 15:14:14;;;;;;;3.92;1.27;;;19.60;66.60;;;;;;2223114;63;30129;-76
2022/04/07 15:16:40;;;;;;;3.45;1.42;;;20.10;65.10;;;;;;2229505;63;30084;-75
2022/04/07 15:19:08;;;;;;;2.75;1.30;;;19.90;64.00;;;;;;2229565;63;30308;-73
2022/04/07 15:21:34;;;;;;;2.33;1.10;;;19.60;64.30;;;;;;2236314;63;30141;-75
2022/04/07 15:24:00;;;;;;;3.13;1.40;;;19.40;64.70;;;;;;2236585;63;30212;-75
2022/04/07 15:26:26;;;;;;;5.50;1.92;;;19.10;64.60;;;;;;2236618;63;30231;-78
2022/04/07 15:28:52;;;;;;;7.45;1.80;;;18.80;65.00;;;;;;2236311;63;29963;-78
2022/04/07 15:31:18;;;;;;;4.13;1.25;;;18.50;65.80;;;;;;2236518;63;30715;-74
2022/04/07 15:33:44;;;;;;;6.82;1.83;;;18.50;66.60;;;;;;2236446;63;30775;-74
2022/04/07 15:36:10;;;;;;;5.18;1.65;;;18.80;66.80;;;;;;2229172;63;30149;-74
2022/04/07 15:38:36;;;;;;;3.17;1.42;;;19.40;66.20;;;;;;2236480;63;30058;-74
2022/04/07 15:41:08;;;;;;;4.28;1.50;;;20.30;64.90;;;;;;2236173;63;30293;-75
2022/04/07 15:43:38;;;;;;;3.78;1.40;;;20.90;62.50;;;;;;2229404;63;30715;-75
2022/04/07 15:46:04;;;;;;;4.55;1.85;;;21.50;61.80;;;;;;2229330;63;30196;-74
2022/04/07 15:48:30;;;;;;;5.40;1.70;;;21.80;61.20;;;;;;2236276;63;30126;-74
2022/04/07 15:50:56;;;;;;;3.40;1.85;;;21.60;60.50;;;;;;2236354;63;29992;-74
2022/04/07 15:53:21;;;;;;;5.70;1.98;;;21.60;60.40;;;;;;2236107;63;30280;-75
2022/04/07 15:55:49;;;;;;;7.97;1.90;;;21.20;60.20;;;;;;2417943;52;31136;-80
2022/04/07 15:58:15;;;;;;;5.75;2.03;;;20.60;60.40;;;;;;2226952;63;30699;-88
2022/04/07 16:00:40;;;;;;;4.95;1.90;;;20.20;60.90;;;;;;2227866;64;30150;-82
2022/04/07 16:03:06;;;;;;;10.73;2.30;;;19.80;61.30;;;;;;2228229;63;30555;-90
2022/04/07 16:05:32;;;;;;;5.30;1.70;;;19.50;61.90;;;;;;2228656;64;30178;-89
2022/04/07 16:07:58;;;;;;;10.32;2.15;;;19.30;62.10;;;;;;2229629;63;30242;-81
2022/04/07 16:10:24;;;;;;;6.70;1.85;;;19.00;62.40;;;;;;2227616;64;31012;-83
2022/04/07 16:12:50;;;;;;;5.85;2.28;;;18.80;62.70;;;;;;2227549;64;31731;-82
2022/04/07 16:15:16;;;;;;;7.53;2.00;;;18.50;63.00;;;;;;2227736;64;30421;-83
2022/04/07 16:17:41;;;;;;;4.63;1.70;;;18.30;63.50;;;;;;2227825;64;30208;-86
2022/04/07 16:20:08;;;;;;;6.32;1.60;;;18.00;63.80;;;;;;2227838;63;30146;-87
2022/04/07 16:22:37;;;;;;;4.93;1.65;;;17.80;64.10;;;;;;2227725;64;30560;-86
2022/04/07 16:25:05;;;;;;;6.85;2.08;;;17.60;64.50;;;;;;2228212;64;30281;-82
2022/04/07 16:27:30;;;;;;;4.53;1.80;;;17.50;64.90;;;;;;2228250;64;30254;-87
2022/04/07 16:29:56;;;;;;;5.15;1.90;;;17.40;65.10;;;;;;2227105;64;30800;-82
2022/04/07 16:32:22;;;;;;;5.10;2.00;;;17.30;65.40;;;;;;2227763;64;30809;-86
2022/04/07 16:34:48;;;;;;;4.05;1.50;;;17.20;65.70;;;;;;2227579;64;30117;-84
2022/04/07 16:37:14;;;;;;;3.88;1.70;;;17.00;65.90;;;;;;2227089;64;30647;-84
2022/04/07 16:39:43;;;;;;;3.53;1.90;;;16.90;66.20;;;;;;2227818;64;30157;-84
2022/04/07 16:42:09;;;;;;;4.90;1.80;;;16.80;66.50;;;;;;2227324;63;30561;-83
2022/04/07 16:44:35;;;;;;;5.22;2.03;;;16.80;66.90;;;;;;2227570;63;30023;-82
2022/04/07 16:47:01;;;;;;;5.47;2.00;;;16.70;67.00;;;;;;2228070;63;30248;-83
2022/04/07 16:49:27;;;;;;;5.93;2.10;;;16.60;67.00;;;;;;2227165;64;30122;-82
2022/04/07 16:51:55;;;;;;;7.47;2.15;;;16.60;67.10;;;;;;2227885;64;30209;-82
2022/04/07 16:54:20;;;;;;;4.72;1.90;;;16.50;67.20;;;;;;2227771;63;30788;-83
2022/04/07 16:56:48;;;;;;;4.38;1.70;;;16.40;67.30;;;;;;2227974;63;30327;-82
2022/04/07 16:59:15;;;;;;;4.47;1.88;;;16.40;67.60;;;;;;2228025;63;30998;-80
2022/04/07 17:01:41;;;;;;;3.90;1.45;;;16.30;67.80;;;;;;2226795;64;30595;-81
2022/04/07 17:04:06;;;;;;;3.55;1.90;;;16.20;67.90;;;;;;2228217;63;30411;-80
2022/04/07 17:06:32;;;;;;;8.30;2.20;;;16.10;68.00;;;;;;2228633;63;29988;-84
2022/04/07 17:08:58;;;;;;;7.18;2.03;;;16.10;68.30;;;;;;2228618;64;30757;-83
2022/04/07 17:11:24;;;;;;;7.38;1.98;;;16.00;68.50;;;;;;2229306;63;30701;-82
2022/04/07 17:13:50;;;;;;;7.60;1.83;;;16.00;68.90;;;;;;2228851;64;29991;-80
2022/04/07 17:16:16;;;;;;;3.55;1.55;;;16.00;69.10;;;;;;2229319;63;30203;-82
2022/04/07 17:18:42;;;;;;;4.93;1.65;;;16.10;69.10;;;;;;2229046;64;30054;-82
2022/04/07 17:21:09;;;;;;;3.28;1.50;;;16.20;68.90;;;;;;2229530;63;30136;-81
2022/04/07 17:23:34;;;;;;;2.65;1.45;;;16.30;68.90;;;;;;2228569;64;30200;-81
2022/04/07 17:26:03;;;;;;;4.15;1.50;;;16.40;68.70;;;;;;2228785;64;30264;-80
2022/04/07 17:28:29;;;;;;;4.78;1.27;;;16.50;68.50;;;;;;2228686;64;32012;-79
2022/04/07 17:30:55;;;;;;;1.63;1.10;;;16.70;68.60;;;;;;2228466;64;30607;-80
2022/04/07 17:33:21;;;;;;;4.13;1.20;;;16.70;69.10;;;;;;2228782;63;30632;-78
2022/04/07 17:35:47;;;;;;;3.78;1.33;;;16.80;68.30;;;;;;2229236;63;30226;-80
2022/04/07 17:38:13;;;;;;;1.73;0.98;;;16.80;68.30;;;;;;2229055;63;30125;-81
2022/04/07 17:40:39;;;;;;;3.08;1.33;;;16.80;68.40;;;;;;2228755;63;30830;-82
2022/04/07 17:43:12;;;;;;;3.65;0.98;;;16.80;68.30;;;;;;2228417;63;30428;-84
2022/04/07 17:45:41;;;;;;;1.92;0.85;;;16.80;68.40;;;;;;2228415;64;30046;-83
2022/04/07 17:48:07;;;;;;;3.42;1.15;;;16.80;68.70;;;;;;2228508;63;30993;-84
2022/04/07 17:50:34;;;;;;;2.78;0.93;;;16.80;68.50;;;;;;2227087;63;30653;-84
2022/04/07 17:53:00;;;;;;;2.65;1.23;;;16.80;68.40;;;;;;2228350;64;30147;-85
2022/04/07 17:55:25;;;;;;;1.55;0.80;;;16.80;68.60;;;;;;2228944;63;30111;-85
2022/04/07 17:57:53;;;;;;;3.17;0.90;;;16.70;68.60;;;;;;2227565;64;30845;-84
2022/04/07 18:00:19;;;;;;;3.65;1.30;;;16.80;68.50;;;;;;2228239;64;30508;-85
2022/04/07 18:02:45;;;;;;;3.17;1.30;;;16.70;68.50;;;;;;2228416;64;30369;-83
2022/04/07 18:05:10;;;;;;;2.92;1.00;;;16.80;68.30;;;;;;2228069;64;30272;-83
2022/04/07 18:07:37;;;;;;;2.53;1.20;;;16.70;68.30;;;;;;2228986;64;30729;-83
2022/04/07 18:10:04;;;;;;;3.80;1.38;;;16.70;68.20;;;;;;2228412;64;31680;-85
2022/04/07 18:12:32;;;;;;;3.28;1.38;;;16.70;68.30;;;;;;2228215;63;29969;-86
2022/04/07 18:14:58;;;;;;;2.65;1.05;;;16.70;68.20;;;;;;2228459;63;30326;-85
2022/04/07 18:17:24;;;;;;;3.55;1.13;;;16.70;68.20;;;;;;2228283;63;30789;-83
2022/04/07 18:19:50;;;;;;;4.43;1.30;;;16.60;68.10;;;;;;2228800;64;30554;-76
2022/04/07 18:22:16;;;;;;;4.95;1.60;;;16.60;68.30;;;;;;2228845;63;30159;-80
2022/04/07 18:24:43;;;;;;;7.05;1.38;;;16.60;67.60;;;;;;2228786;63;29955;-82
2022/04/07 18:27:09;;;;;;;2.58;1.30;;;16.50;67.30;;;;;;2228062;64;30906;-82
2022/04/07 18:29:35;;;;;;;4.03;1.40;;;16.50;67.90;;;;;;2228873;64;30235;-81
2022/04/07 18:32:01;;;;;;;3.50;1.17;;;16.50;68.10;;;;;;2228910;64;30171;-80
2022/04/07 18:34:27;;;;;;;3.30;1.30;;;16.40;68.30;;;;;;2228723;63;30307;-80
2022/04/07 18:36:53;;;;;;;4.22;1.42;;;16.50;68.40;;;;;;2229318;63;30880;-79
2022/04/07 18:39:18;;;;;;;4.13;1.42;;;16.40;68.50;;;;;;2228381;64;30751;-80
2022/04/07 18:41:44;;;;;;;4.25;1.48;;;16.50;68.90;;;;;;2230177;64;29823;-85
2022/04/07 18:44:10;;;;;;;3.17;1.13;;;16.50;68.70;;;;;;2228599;64;30132;-89
2022/04/07 18:46:36;;;;;;;2.17;1.30;;;16.40;68.60;;;;;;2228392;64;30838;-87
2022/04/07 18:49:03;;;;;;;3.17;1.30;;;16.40;68.50;;;;;;2228201;64;30103;-87
2022/04/07 18:51:29;;;;;;;1.92;0.90;;;16.50;68.70;;;;;;2229008;64;29963;-82
2022/04/07 18:53:54;;;;;;;4.57;1.48;;;16.50;68.60;;;;;;2228238;64;30270;-85
2022/04/07 18:56:20;;;;;;;3.00;1.10;;;16.40;68.70;;;;;;2228582;64;30348;-86
2022/04/07 18:58:48;;;;;;;5.93;1.38;;;16.40;68.50;;;;;;2228801;64;30642;-81
2022/04/07 19:01:14;;;;;;;3.10;1.40;;;16.50;68.80;;;;;;2228575;64;30091;-84
2022/04/07 19:03:40;;;;;;;3.35;1.48;;;16.40;69.60;;;;;;2228296;64;30262;-86
2022/04/07 19:06:05;;;;;;;5.60;1.77;;;16.40;69.70;;;;;;2228788;64;31211;-87
2022/04/07 19:08:31;;;;;;;3.42;1.30;;;16.40;69.80;;;;;;2228613;64;32012;-84
2022/04/07 19:11:00;;;;;;;4.03;1.33;;;16.40;69.90;;;;;;2228745;63;30262;-86
2022/04/07 19:13:26;;;;;;;4.93;1.52;;;16.40;70.10;;;;;;2228654;64;30486;-81
2022/04/07 19:15:51;;;;;;;5.43;1.38;;;16.40;70.10;;;;;;2228320;64;31074;-82
2022/04/07 19:18:17;;;;;;;5.32;1.70;;;16.50;69.60;;;;;;2228002;63;30870;-77
2022/04/07 19:20:43;;;;;;;10.45;2.30;;;16.60;69.50;;;;;;2228438;63;30341;-77
2022/04/07 19:23:09;;;;;;;4.60;1.75;;;16.60;69.70;;;;;;2228497;63;30044;-78
2022/04/07 19:25:35;;;;;;;7.43;1.80;;;16.70;69.70;;;;;;2227914;64;30250;-78
2022/04/07 19:28:01;;;;;;;6.53;1.70;;;16.70;69.70;;;;;;2228320;63;30670;-76
2022/04/07 19:30:27;;;;;;;2.58;1.40;;;16.80;69.60;;;;;;2228102;63;30136;-79
2022/04/07 19:32:52;;;;;;;4.25;1.20;;;16.80;69.90;;;;;;2228815;63;30219;-78
2022/04/07 19:35:18;;;;;;;2.60;0.98;;;16.80;69.50;;;;;;2228802;64;30142;-77
2022/04/07 19:37:44;;;;;;;2.85;1.02;;;16.90;69.80;;;;;;2228688;64;30931;-76
2022/04/07 19:40:10;;;;;;;1.83;0.95;;;16.90;69.70;;;;;;2228818;63;30206;-77
2022/04/07 19:42:39;;;;;;;2.08;1.15;;;16.90;69.50;;;;;;2228378;63;31182;-77
2022/04/07 19:45:06;;;;;;;4.15;1.98;;;16.90;69.40;;;;;;2227802;64;30019;-76
2022/04/07 19:47:31;;;;;;;3.88;1.20;;;17.00;69.30;;;;;;2228824;63;31866;-78
2022/04/07 19:49:57;;;;;;;2.20;1.27;;;17.00;69.40;;;;;;2228682;63;30210;-76
2022/04/07 19:52:25;;;;;;;2.92;1.40;;;17.00;69.10;;;;;;2228569;63;29957;-76
2022/04/07 19:54:51;;;;;;;2.10;1.40;;;17.00;69.00;;;;;;2228881;63;31534;-77
2022/04/07 19:57:16;;;;;;;1.63;0.93;;;17.00;69.10;;;;;;2228383;64;31040;-78
2022/04/07 19:59:45;;;;;;;1.85;0.98;;;17.00;69.00;;;;;;2228921;63;30235;-80
2022/04/07 20:02:12;;;;;;;3.70;1.42;;;17.00;68.90;;;;;;2228756;63;30070;-78
2022/04/07 20:04:38;;;;;;;2.97;1.48;;;17.00;68.90;;;;;;2228535;63;31061;-78
2022/04/07 20:07:06;;;;;;;2.20;1.20;;;17.00;69.30;;;;;;2228716;64;30164;-76
2022/04/07 20:09:32;;;;;;;1.83;1.27;;;17.00;69.10;;;;;;2228254;64;30311;-77
2022/04/07 20:11:57;;;;;;;2.67;1.10;;;17.00;68.90;;;;;;2228489;64;30282;-77
2022/04/07 20:14:27;;;;;;;1.50;1.02;;;17.10;69.00;;;;;;2228606;64;32443;-76
2022/04/07 20:16:53;;;;;;;1.95;0.88;;;17.10;69.00;;;;;;2227840;64;30102;-79
2022/04/07 20:19:20;;;;;;;1.70;1.10;;;17.10;68.90;;;;;;2228557;63;30361;-77
2022/04/07 20:21:45;;;;;;;1.77;1.20;;;17.10;69.00;;;;;;2228689;63;30060;-77
2022/04/07 20:24:11;;;;;;;1.90;1.15;;;17.10;68.80;;;;;;2228715;63;31238;-77
2022/04/07 20:26:43;;;;;;;2.55;1.23;;;17.10;68.90;;;;;;2228471;64;30976;-76
2022/04/07 20:29:13;;;;;;;3.22;1.20;;;17.10;68.60;;;;;;2228854;63;29950;-79
2022/04/07 20:31:42;;;;;;;3.22;1.20;;;17.10;68.70;;;;;;2228062;64;30160;-78
2022/04/07 20:34:09;;;;;;;2.58;1.20;;;17.10;68.80;;;;;;2227909;64;32481;-79
2022/04/07 20:36:35;;;;;;;3.70;1.13;;;17.10;68.70;;;;;;2228040;64;32220;-79
2022/04/07 20:39:01;;;;;;;2.38;1.00;;;17.10;68.50;;;;;;2228059;64;30136;-80
2022/04/07 20:41:26;;;;;;;2.88;1.10;;;17.10;68.40;;;;;;2227711;63;30960;-80
2022/04/07 20:43:52;;;;;;;2.08;0.93;;;17.10;68.50;;;;;;2228060;64;30167;-77
2022/04/07 20:46:18;;;;;;;2.95;1.10;;;17.10;68.20;;;;;;2228515;64;31860;-78
2022/04/07 20:48:44;;;;;;;3.10;1.20;;;17.10;68.20;;;;;;2228255;64;30283;-79
2022/04/07 20:51:10;;;;;;;2.15;0.93;;;17.10;68.20;;;;;;2228472;63;30021;-78
2022/04/07 20:53:36;;;;;;;2.15;1.20;;;17.10;68.00;;;;;;2227753;64;30993;-77
2022/04/07 20:56:02;;;;;;;1.90;1.08;;;17.10;67.90;;;;;;2228557;63;31885;-77
2022/04/07 20:58:28;;;;;;;4.68;1.30;;;17.00;68.30;;;;;;2228477;63;30106;-78
2022/04/07 21:00:56;;;;;;;2.83;1.20;;;17.00;68.20;;;;;;2228407;64;30073;-78
2022/04/07 21:03:21;;;;;;;1.58;1.05;;;17.00;68.40;;;;;;2228434;63;31543;-80
2022/04/07 21:05:48;;;;;;;2.72;1.20;;;17.00;68.30;;;;;;2228445;64;30482;-79
2022/04/07 21:08:13;;;;;;;2.40;1.42;;;17.00;68.40;;;;;;2228232;64;30277;-77
2022/04/07 21:10:41;;;;;;;1.65;0.80;;;17.00;68.50;;;;;;2227948;63;30125;-78
2022/04/07 21:13:07;;;;;;;1.85;0.93;;;17.00;68.30;;;;;;2228368;63;31450;-77
2022/04/07 21:15:33;;;;;;;1.50;0.88;;;17.00;68.20;;;;;;2228195;63;30232;-79
2022/04/07 21:17:59;;;;;;;2.38;1.10;;;17.00;68.10;;;;;;2228246;64;30248;-78
2022/04/07 21:20:28;;;;;;;3.15;1.00;;;17.00;68.10;;;;;;2228491;64;30106;-78
2022/04/07 21:22:54;;;;;;;1.92;1.05;;;17.00;68.10;;;;;;2228078;64;30814;-79
2022/04/07 21:25:19;;;;;;;2.50;1.20;;;17.00;68.00;;;;;;2228333;63;30193;-79
2022/04/07 21:27:45;;;;;;;3.05;1.38;;;17.00;68.00;;;;;;2228311;64;30311;-79
2022/04/07 21:30:11;;;;;;;2.70;1.05;;;17.00;68.00;;;;;;2227897;64;30278;-79
2022/04/07 21:32:37;;;;;;;2.13;0.98;;;17.00;68.00;;;;;;2228235;63;30821;-78
2022/04/07 21:35:03;;;;;;;2.80;1.00;;;17.00;67.90;;;;;;2228347;63;30268;-78